createdAt,value
2022-09-04T00:03:05.272Z,975.36
2022-09-04T00:08:05.976Z,975.38
2022-09-04T00:13:05.133Z,975.40
2022-09-04T00:18:05.068Z,975.40
2022-09-04T00:23:05.004Z,975.42
2022-09-04T00:28:05.925Z,975.44
2022-09-04T00:33:04.937Z,975.53
2022-09-04T00:38:04.829Z,975.59
2022-09-04T00:43:04.757Z,975.54
2022-09-04T00:48:04.700Z,975.55
2022-09-04T00:53:06.110Z,975.58
2022-09-04T00:58:04.554Z,975.62
2022-09-04T01:03:04.481Z,975.72
2022-09-04T01:08:04.414Z,975.75
2022-09-04T01:13:04.364Z,975.76
2022-09-04T01:18:04.280Z,975.81
2022-09-04T01:23:04.287Z,975.80
2022-09-04T01:28:04.156Z,975.84
2022-09-04T01:33:04.098Z,975.89
2022-09-04T01:38:04.024Z,975.91
2022-09-04T01:43:03.991Z,975.95
2022-09-04T01:48:03.965Z,975.94
2022-09-04T01:53:03.862Z,975.99
2022-09-04T01:58:03.792Z,975.97
2022-09-04T02:03:03.745Z,976.01
2022-09-04T02:08:03.684Z,976.03
2022-09-04T02:13:03.623Z,976.08
2022-09-04T02:18:03.586Z,976.05
2022-09-04T02:23:03.520Z,975.99
2022-09-04T02:28:03.444Z,976.05
2022-09-04T02:33:03.373Z,976.02
2022-09-04T02:38:03.322Z,976.01
2022-09-04T02:43:03.209Z,976.07
2022-09-04T02:48:03.183Z,976.06
2022-09-04T02:53:03.081Z,976.02
2022-09-04T02:58:03.052Z,976.12
2022-09-04T03:03:02.969Z,976.17
2022-09-04T03:08:02.956Z,976.11
2022-09-04T03:13:02.805Z,976.07
2022-09-04T03:18:02.754Z,976.11
2022-09-04T03:23:02.709Z,976.18
2022-09-04T03:28:03.463Z,976.22
2022-09-04T03:33:02.581Z,976.24
2022-09-04T03:38:02.503Z,976.19
2022-09-04T03:43:02.438Z,976.18
2022-09-04T03:48:02.383Z,976.14
2022-09-04T03:53:02.299Z,976.24
2022-09-04T03:58:02.296Z,976.26
2022-09-04T04:03:02.247Z,976.34
2022-09-04T04:08:02.121Z,976.45
2022-09-04T04:13:02.063Z,976.38
2022-09-04T04:18:02.027Z,976.41
2022-09-04T04:23:01.915Z,976.44
2022-09-04T04:28:02.052Z,976.54
2022-09-04T04:33:01.810Z,976.57
2022-09-04T04:38:01.733Z,976.67
2022-09-04T04:43:01.678Z,976.70
2022-09-04T04:48:01.684Z,976.71
2022-09-04T04:53:01.546Z,976.81
2022-09-04T04:58:01.472Z,976.88
2022-09-04T05:03:01.566Z,976.96
2022-09-04T05:08:03.933Z,976.99
2022-09-04T05:13:02.337Z,977.08
2022-09-04T05:18:01.230Z,977.15
2022-09-04T05:23:01.158Z,977.21
2022-09-04T05:28:01.124Z,977.33
2022-09-04T05:33:01.026Z,977.40
2022-09-04T05:38:00.952Z,977.41
2022-09-04T05:43:00.896Z,977.50
2022-09-04T05:48:00.850Z,977.52
2022-09-04T05:53:00.746Z,977.57
2022-09-04T05:58:00.727Z,977.65
2022-09-04T06:03:00.718Z,977.71
2022-09-04T06:08:00.620Z,977.71
2022-09-04T06:13:00.522Z,977.86
2022-09-04T06:18:00.444Z,977.86
2022-09-04T06:23:03.053Z,977.80
2022-09-04T06:28:00.325Z,977.81
2022-09-04T06:33:00.260Z,977.84
2022-09-04T06:38:00.271Z,977.87
2022-09-04T06:43:00.147Z,977.90
2022-09-04T06:48:00.101Z,977.97
2022-09-04T06:53:03.990Z,978.04
2022-09-04T06:58:00.337Z,978.08
2022-09-04T07:02:59.931Z,978.07
2022-09-04T07:07:59.873Z,978.13
2022-09-04T07:12:59.744Z,978.21
2022-09-04T07:18:01.430Z,978.24
2022-09-04T07:22:59.654Z,978.32
2022-09-04T07:27:59.708Z,978.34
2022-09-04T07:32:59.539Z,978.44
2022-09-04T07:37:59.449Z,978.39
2022-09-04T07:42:59.597Z,978.40
2022-09-04T07:47:59.320Z,978.37
2022-09-04T07:53:03.038Z,978.44
2022-09-04T07:58:00.203Z,978.51
2022-09-04T08:02:59.130Z,978.48
2022-09-04T08:07:59.051Z,978.58
2022-09-04T08:12:59.033Z,978.60
2022-09-04T08:17:58.983Z,978.65
2022-09-04T08:22:58.924Z,978.70
2022-09-04T08:27:58.828Z,978.66
2022-09-04T08:32:58.744Z,978.70
2022-09-04T08:37:58.696Z,978.65
2022-09-04T08:42:58.653Z,978.72
2022-09-04T08:47:58.585Z,978.78
2022-09-04T08:53:03.141Z,978.79
2022-09-04T08:57:59.452Z,978.79
2022-09-04T09:02:58.436Z,978.84
2022-09-04T09:07:58.326Z,978.87
2022-09-04T09:12:58.245Z,978.87
2022-09-04T09:17:58.506Z,978.88
2022-09-04T09:22:58.119Z,978.88
2022-09-04T09:27:58.056Z,978.94
2022-09-04T09:32:58.008Z,978.91
2022-09-04T09:38:02.347Z,978.86
2022-09-04T09:42:58.870Z,978.89
2022-09-04T09:47:57.820Z,978.88
2022-09-04T09:52:57.738Z,978.84
2022-09-04T09:57:57.680Z,978.87
2022-09-04T10:02:57.611Z,978.80
2022-09-04T10:07:57.613Z,978.72
2022-09-04T10:12:57.498Z,978.74
2022-09-04T10:17:57.436Z,978.75
2022-09-04T10:22:57.348Z,978.78
2022-09-04T10:27:57.310Z,978.78
2022-09-04T10:32:57.241Z,978.72
2022-09-04T10:37:57.226Z,978.71
2022-09-04T10:42:57.115Z,978.70
2022-09-04T10:47:57.046Z,978.74
2022-09-04T10:52:57.160Z,978.63
2022-09-04T10:57:56.983Z,978.70
2022-09-04T11:02:56.879Z,978.61
2022-09-04T11:07:56.823Z,978.56
2022-09-04T11:12:56.741Z,978.56
2022-09-04T11:17:56.660Z,978.58
2022-09-04T11:22:56.688Z,978.49
2022-09-04T11:27:56.573Z,978.51
2022-09-04T11:32:56.489Z,978.52
2022-09-04T11:37:57.906Z,978.47
2022-09-04T11:42:56.357Z,978.44
2022-09-04T11:47:56.300Z,978.43
2022-09-04T11:52:56.549Z,978.50
2022-09-04T11:57:56.152Z,978.51
2022-09-04T12:02:56.083Z,978.56
2022-09-04T12:07:56.014Z,978.50
2022-09-04T12:12:56.030Z,978.57
2022-09-04T12:17:55.870Z,978.52
2022-09-04T12:22:55.832Z,978.48
2022-09-04T12:27:55.776Z,978.42
2022-09-04T12:32:55.683Z,978.47
2022-09-04T12:37:55.630Z,978.47
2022-09-04T12:42:55.565Z,978.44
2022-09-04T12:47:57.328Z,978.48
2022-09-04T12:52:55.713Z,978.51
2022-09-04T12:57:55.413Z,978.53
2022-09-04T13:02:55.523Z,978.60
2022-09-04T13:07:55.314Z,978.65
2022-09-04T13:12:55.247Z,978.68
2022-09-04T13:17:55.130Z,978.67
2022-09-04T13:22:55.068Z,978.70
2022-09-04T13:27:55.012Z,978.75
2022-09-04T13:32:54.941Z,978.76
2022-09-04T13:37:55.074Z,978.71
2022-09-04T13:42:54.833Z,978.76
2022-09-04T13:47:54.762Z,978.77
2022-09-04T13:52:55.635Z,978.76
2022-09-04T13:57:54.635Z,978.78
2022-09-04T14:02:54.570Z,978.76
2022-09-04T14:07:54.508Z,978.75
2022-09-04T14:12:54.478Z,978.72
2022-09-04T14:17:54.371Z,978.70
2022-09-04T14:22:55.093Z,978.68
2022-09-04T14:27:54.276Z,978.66
2022-09-04T14:32:57.683Z,978.65
2022-09-04T14:37:54.121Z,978.72
2022-09-04T14:42:54.046Z,978.73
2022-09-04T14:47:54.023Z,978.78
2022-09-04T14:52:53.935Z,978.75
2022-09-04T14:57:53.873Z,978.70
2022-09-04T15:02:53.790Z,978.66
2022-09-04T15:07:53.754Z,978.66
2022-09-04T15:12:53.701Z,978.74
2022-09-04T15:17:53.621Z,978.74
2022-09-04T15:22:53.548Z,978.74
2022-09-04T15:27:53.483Z,978.74
2022-09-04T15:32:53.418Z,978.70
2022-09-04T15:37:53.362Z,978.74
2022-09-04T15:42:53.439Z,978.78
2022-09-04T15:47:53.287Z,978.76
2022-09-04T15:52:53.160Z,978.81
2022-09-04T15:57:53.125Z,978.86
2022-09-04T16:02:53.094Z,978.86
2022-09-04T16:07:54.536Z,978.84
2022-09-04T16:12:52.912Z,978.89
2022-09-04T16:17:52.872Z,978.90
2022-09-04T16:22:52.798Z,978.85
2022-09-04T16:27:52.739Z,978.89
2022-09-04T16:32:52.636Z,978.85
2022-09-04T16:37:52.609Z,978.89
2022-09-04T16:42:52.527Z,978.90
2022-09-04T16:47:52.513Z,978.92
2022-09-04T16:52:58.865Z,978.93
2022-09-04T16:57:53.368Z,978.89
2022-09-04T17:02:52.442Z,978.99
2022-09-04T17:07:52.218Z,979.04
2022-09-04T17:12:52.144Z,979.03
2022-09-04T17:17:52.087Z,979.06
2022-09-04T17:28:56.730Z,979.03
2022-09-04T17:29:13.600Z,979.08
2022-09-04T17:34:10.497Z,979.10
2022-09-04T17:40:37.880Z,979.13
2022-09-04T17:43:14.819Z,979.12
2022-09-04T17:47:52.690Z,979.17
2022-09-04T17:52:51.621Z,979.21
2022-09-04T17:57:51.928Z,979.29
2022-09-04T18:02:51.794Z,979.36
2022-09-04T18:08:08.493Z,979.41
2022-09-04T18:12:52.375Z,979.52
2022-09-04T18:17:51.317Z,979.62
2022-09-04T18:22:51.277Z,979.67
2022-09-04T18:27:51.221Z,979.77
2022-09-04T18:37:24.432Z,979.77
2022-09-04T18:37:52.093Z,979.90
2022-09-04T18:50:20.838Z,979.95
2022-09-04T18:50:36.445Z,979.90
2022-09-04T18:52:51.895Z,980.01
2022-09-04T18:57:50.818Z,980.05
2022-09-04T19:02:51.453Z,980.08
2022-09-04T19:07:50.674Z,980.04
2022-09-04T19:12:50.643Z,980.10
2022-09-04T19:17:50.570Z,980.11
2022-09-04T19:22:50.517Z,980.17
2022-09-04T19:27:54.942Z,980.18
2022-09-04T19:32:50.402Z,980.21
2022-09-04T19:42:12.848Z,980.24
2022-09-04T19:46:00.062Z,980.24
2022-09-04T19:47:51.278Z,980.27
2022-09-04T19:53:31.774Z,980.27
2022-09-04T19:57:51.066Z,980.22
2022-09-04T20:02:50.029Z,980.15
2022-09-04T20:07:49.943Z,980.15
2022-09-04T20:12:51.186Z,980.16
2022-09-04T20:17:49.824Z,980.21
2022-09-04T20:22:49.755Z,980.24
2022-09-04T20:27:49.691Z,980.23
2022-09-04T20:32:55.741Z,980.16
2022-09-04T20:37:53.419Z,980.25
2022-09-04T20:42:56.657Z,980.28
2022-09-04T20:52:45.540Z,980.26
2022-09-04T20:53:09.500Z,980.25
2022-09-04T21:03:13.652Z,980.27
2022-09-04T21:03:21.362Z,980.28
2022-09-04T21:07:50.181Z,980.29
2022-09-04T21:12:49.115Z,980.30
2022-09-04T21:17:50.048Z,980.32
2022-09-04T21:22:48.982Z,980.39
2022-09-04T21:27:48.917Z,980.41
2022-09-04T21:32:48.852Z,980.43
2022-09-04T21:37:48.948Z,980.52
2022-09-04T21:42:48.772Z,980.54
2022-09-04T21:47:48.712Z,980.54
2022-09-04T21:52:56.123Z,980.60
2022-09-04T22:02:26.805Z,980.61
2022-09-04T22:02:55.635Z,980.61
2022-09-04T22:12:18.257Z,980.58
2022-09-04T22:13:42.211Z,980.59
2022-09-04T22:17:49.289Z,980.61
2022-09-04T22:22:48.247Z,980.60
2022-09-04T22:28:04.572Z,980.65
2022-09-04T22:32:49.133Z,980.70
2022-09-04T22:37:48.055Z,980.70
2022-09-04T22:42:48.012Z,980.73
2022-09-04T22:47:47.913Z,980.70
2022-09-04T22:52:47.851Z,980.73
2022-09-04T22:57:47.791Z,980.75
2022-09-04T23:03:07.771Z,980.82
2022-09-04T23:13:42.345Z,980.81
2022-09-04T23:14:02.711Z,980.81
2022-09-04T23:19:07.333Z,980.79
2022-09-04T23:26:50.370Z,980.79
2022-09-04T23:27:48.380Z,980.77
2022-09-04T23:32:47.353Z,980.72
2022-09-04T23:37:50.262Z,980.75
2022-09-04T23:42:48.517Z,980.69
2022-09-04T23:47:49.477Z,980.71
2022-09-04T23:52:49.149Z,980.72
2022-09-04T23:57:47.000Z,980.73
